Time;durP1;ratioP1;P1;durP2;ratioP2;P2;SDS_P1;SDS_P2;PMS_P1;PMS_P2;Temp;Humidity;BMP_temperature;BMP_pressure;BME280_temperature;BME280_humidity;BME280_pressure;Samples;Min_cycle;Max_cycle;Signal;HPM_P1;HPM_P2
2023/10/21 00:01:20;;;;;;;;;;;;;;;13.49;100.00;99418.16;4994049;28;819;-66
2023/10/21 00:03:47;;;;;;;;;;;;;;;13.40;100.00;99423.47;4993954;28;881;-66
2023/10/21 00:06:13;;;;;;;;;;;;;;;13.26;100.00;99435.66;4993924;28;863;-65
2023/10/21 00:08:39;;;;;;;;;;;;;;;13.24;100.00;99438.88;4993789;28;855;-65
2023/10/21 00:11:08;;;;;;;;;;;;;;;13.48;100.00;99436.81;4993836;28;906;-65
2023/10/21 00:13:35;;;;;;;;;;;;;;;13.58;100.00;99440.53;4992426;28;1898;-65
2023/10/21 00:16:03;;;;;;;;;;;;;;;13.59;100.00;99435.75;4993751;28;795;-65
2023/10/21 00:18:29;;;;;;;;;;;;;;;13.54;100.00;99437.06;4993731;28;889;-65
2023/10/21 00:20:56;;;;;;;;;;;;;;;13.45;100.00;99437.66;4992440;28;1267;-65
2023/10/21 00:23:24;;;;;;;;;;;;;;;13.42;100.00;99438.53;4994897;28;1258;-65
2023/10/21 00:25:52;;;;;;;;;;;;;;;13.40;100.00;99440.13;5013140;28;988;-65
2023/10/21 00:28:18;;;;;;;;;;;;;;;13.37;100.00;99438.25;5013072;28;844;-65
2023/10/21 00:30:47;;;;;;;;;;;;;;;13.30;100.00;99447.50;5013134;28;818;-65
2023/10/21 00:33:14;;;;;;;;;;;;;;;13.37;100.00;99441.78;5013160;28;1977;-65
2023/10/21 00:35:43;;;;;;;;;;;;;;;13.56;100.00;99444.97;5013429;28;833;-65
2023/10/21 00:38:09;;;;;;;;;;;;;;;13.74;100.00;99436.19;5013114;28;889;-67
2023/10/21 00:40:36;;;;;;;;;;;;;;;14.00;100.00;99437.19;5012979;28;922;-65
2023/10/21 00:43:03;;;;;;;;;;;;;;;14.04;100.00;99432.31;5013018;28;864;-65
2023/10/21 00:45:30;;;;;;;;;;;;;;;13.96;100.00;99433.72;5013191;28;874;-65
2023/10/21 00:47:56;;;;;;;;;;;;;;;14.00;100.00;99434.41;5013018;28;811;-65
2023/10/21 00:50:22;;;;;;;;;;;;;;;13.95;100.00;99432.91;5013169;28;799;-66
2023/10/21 00:52:49;;;;;;;;;;;;;;;13.88;100.00;99435.88;5012725;28;1886;-66
2023/10/21 00:55:16;;;;;;;;;;;;;;;13.84;100.00;99435.16;5012800;28;1163;-66
2023/10/21 00:57:43;;;;;;;;;;;;;;;13.81;100.00;99433.28;5012547;28;1198;-66
2023/10/21 01:00:12;;;;;;;;;;;;;;;13.92;100.00;99428.22;5012661;28;1327;-65
2023/10/21 01:02:39;;;;;;;;;;;;;;;13.93;100.00;99429.78;5012630;28;885;-65
2023/10/21 01:05:06;;;;;;;;;;;;;;;14.06;100.00;99432.63;5012604;28;831;-66
2023/10/21 01:07:36;;;;;;;;;;;;;;;14.11;100.00;99429.34;5012776;28;847;-65
2023/10/21 01:10:05;;;;;;;;;;;;;;;14.01;100.00;99433.94;5012471;28;831;-65
2023/10/21 01:12:31;;;;;;;;;;;;;;;13.93;100.00;99438.13;5012270;28;1889;-65
2023/10/21 01:15:00;;;;;;;;;;;;;;;13.91;100.00;99443.31;5012255;28;1070;-65
2023/10/21 01:17:26;;;;;;;;;;;;;;;13.95;100.00;99434.91;5012399;28;811;-66
2023/10/21 01:19:57;;;;;;;;;;;;;;;14.11;100.00;99442.47;5012257;28;994;-66
2023/10/21 01:22:23;;;;;;;;;;;;;;;14.21;100.00;99444.19;5012539;28;807;-66
2023/10/21 01:24:51;;;;;;;;;;;;;;;14.35;100.00;99443.03;5011894;28;1431;-65
2023/10/21 01:27:17;;;;;;;;;;;;;;;14.41;100.00;99442.06;5012409;28;846;-67
2023/10/21 01:29:44;;;;;;;;;;;;;;;14.45;100.00;99455.88;5012028;28;816;-65
2023/10/21 01:32:10;;;;;;;;;;;;;;;14.56;100.00;99444.50;5012060;28;1981;-63
2023/10/21 01:34:36;;;;;;;;;;;;;;;14.76;100.00;99444.34;5012011;28;823;-65
2023/10/21 01:37:03;;;;;;;;;;;;;;;14.73;100.00;99456.38;5012106;28;855;-66
2023/10/21 01:39:30;;;;;;;;;;;;;;;14.51;100.00;99459.72;5011938;28;869;-66
2023/10/21 01:41:58;;;;;;;;;;;;;;;14.24;100.00;99457.22;5012025;28;995;-66
2023/10/21 01:44:25;;;;;;;;;;;;;;;14.03;100.00;99453.75;5012064;28;879;-67
2023/10/21 01:46:52;;;;;;;;;;;;;;;13.87;100.00;99460.09;5012047;28;878;-66
2023/10/21 01:49:18;;;;;;;;;;;;;;;13.67;100.00;99470.47;5011944;28;890;-65
2023/10/21 01:51:45;;;;;;;;;;;;;;;13.52;100.00;99467.25;5011858;28;1886;-65
2023/10/21 01:54:11;;;;;;;;;;;;;;;13.42;100.00;99468.25;5011883;28;847;-66
2023/10/21 01:56:38;;;;;;;;;;;;;;;13.34;100.00;99464.09;5013619;28;867;-65
2023/10/21 01:59:06;;;;;;;;;;;;;;;13.23;100.00;99470.63;5015956;28;819;-67
2023/10/21 02:01:33;;;;;;;;;;;;;;;13.13;100.00;99468.84;5015751;28;981;-66
2023/10/21 02:03:59;;;;;;;;;;;;;;;13.02;100.00;99471.06;4998059;28;1300;-66
2023/10/21 02:06:26;;;;;;;;;;;;;;;13.00;100.00;99473.47;5015762;28;862;-66
2023/10/21 02:08:55;;;;;;;;;;;;;;;12.94;100.00;99464.88;5015801;28;811;-66
2023/10/21 02:11:22;;;;;;;;;;;;;;;12.94;100.00;99469.63;5015640;28;871;-67
2023/10/21 02:13:49;;;;;;;;;;;;;;;12.94;100.00;99464.09;5015660;28;1953;-66
2023/10/21 02:16:15;;;;;;;;;;;;;;;12.92;100.00;99467.28;5015609;28;862;-65
2023/10/21 02:18:42;;;;;;;;;;;;;;;13.00;100.00;99471.47;5015651;28;870;-66
2023/10/21 02:21:09;;;;;;;;;;;;;;;13.01;100.00;99481.34;5015820;28;1029;-66
2023/10/21 02:23:36;;;;;;;;;;;;;;;13.04;100.00;99479.75;5015180;28;1345;-65
2023/10/21 02:26:04;;;;;;;;;;;;;;;13.02;100.00;99474.63;5015473;28;874;-66
2023/10/21 02:28:31;;;;;;;;;;;;;;;12.98;100.00;99479.44;5015324;28;886;-65
2023/10/21 02:30:57;;;;;;;;;;;;;;;12.96;100.00;99481.88;5015492;28;863;-65
2023/10/21 02:33:23;;;;;;;;;;;;;;;12.89;100.00;99479.25;5015086;28;1913;-66
2023/10/21 02:35:55;;;;;;;;;;;;;;;12.88;100.00;99483.22;5015549;28;846;-66
2023/10/21 02:38:25;;;;;;;;;;;;;;;12.80;100.00;99482.59;5015162;28;818;-65
2023/10/21 02:40:51;;;;;;;;;;;;;;;12.77;100.00;99483.41;5015090;28;902;-65
2023/10/21 02:43:17;;;;;;;;;;;;;;;12.74;100.00;99495.38;5015133;28;858;-66
2023/10/21 02:45:43;;;;;;;;;;;;;;;12.69;100.00;99489.53;5015119;28;823;-66
2023/10/21 02:48:10;;;;;;;;;;;;;;;12.65;100.00;99487.59;5015030;28;858;-66
2023/10/21 02:50:37;;;;;;;;;;;;;;;12.66;100.00;99486.38;4997509;28;1689;-66
2023/10/21 02:53:04;;;;;;;;;;;;;;;12.74;100.00;99491.78;5014861;28;1890;-65
2023/10/21 02:55:30;;;;;;;;;;;;;;;12.66;100.00;99496.69;5014873;28;862;-65
2023/10/21 02:57:57;;;;;;;;;;;;;;;12.61;100.00;99497.19;5014927;28;886;-66
2023/10/21 03:00:24;;;;;;;;;;;;;;;12.64;100.00;99488.03;5014654;28;956;-66
2023/10/21 03:02:51;;;;;;;;;;;;;;;12.74;100.00;99500.09;5014663;28;837;-66
2023/10/21 03:05:18;;;;;;;;;;;;;;;12.94;100.00;99494.59;5014689;28;835;-66
2023/10/21 03:07:45;;;;;;;;;;;;;;;13.13;100.00;99493.03;5013506;28;882;-66
2023/10/21 03:10:11;;;;;;;;;;;;;;;13.27;100.00;99498.28;5014585;28;846;-66
2023/10/21 03:12:38;;;;;;;;;;;;;;;13.25;100.00;99492.41;5014459;28;1961;-66
2023/10/21 03:15:06;;;;;;;;;;;;;;;13.32;100.00;99491.50;4996852;28;1284;-67
2023/10/21 03:17:32;;;;;;;;;;;;;;;13.29;100.00;99490.34;5014736;28;878;-66
2023/10/21 03:19:59;;;;;;;;;;;;;;;13.21;100.00;99495.25;5014534;28;921;-67
2023/10/21 03:22:26;;;;;;;;;;;;;;;13.17;100.00;99491.75;5014390;28;894;-66
2023/10/21 03:24:53;;;;;;;;;;;;;;;13.35;100.00;99496.19;5014149;28;1262;-65
2023/10/21 03:27:20;;;;;;;;;;;;;;;13.47;100.00;99490.75;5014464;28;898;-66
2023/10/21 03:29:46;;;;;;;;;;;;;;;13.54;100.00;99491.81;5014184;28;788;-65
2023/10/21 03:32:13;;;;;;;;;;;;;;;13.56;100.00;99487.38;5013966;28;1914;-65
2023/10/21 03:34:39;;;;;;;;;;;;;;;13.72;100.00;99486.66;5014107;28;883;-65
2023/10/21 03:37:06;;;;;;;;;;;;;;;13.84;100.00;99497.06;5014049;28;886;-67
2023/10/21 03:39:33;;;;;;;;;;;;;;;13.96;100.00;99490.06;5014169;28;799;-67
2023/10/21 03:41:58;;;;;;;;;;;;;;;14.07;100.00;99492.56;5013964;28;886;-67
2023/10/21 03:44:25;;;;;;;;;;;;;;;14.13;100.00;99501.97;5013972;28;811;-66
2023/10/21 03:46:52;;;;;;;;;;;;;;;14.11;100.00;99492.50;5013919;28;853;-65
2023/10/21 03:49:19;;;;;;;;;;;;;;;14.01;100.00;99506.19;5013887;28;870;-65
2023/10/21 03:51:45;;;;;;;;;;;;;;;13.97;100.00;99499.94;5013954;28;1961;-65
2023/10/21 03:54:12;;;;;;;;;;;;;;;14.02;100.00;99501.44;5013920;28;874;-66
2023/10/21 03:56:38;;;;;;;;;;;;;;;13.96;100.00;99498.38;5013781;28;808;-67
2023/10/21 03:59:05;;;;;;;;;;;;;;;13.97;100.00;99493.59;4996029;28;1186;-66
2023/10/21 04:01:31;;;;;;;;;;;;;;;13.86;100.00;99496.63;5013738;28;810;-66
2023/10/21 04:03:58;;;;;;;;;;;;;;;13.68;100.00;99494.28;5013567;28;806;-66
2023/10/21 04:06:25;;;;;;;;;;;;;;;13.71;100.00;99498.19;5013498;28;834;-66
2023/10/21 04:08:52;;;;;;;;;;;;;;;13.71;100.00;99495.41;5013681;28;798;-65
2023/10/21 04:11:20;;;;;;;;;;;;;;;13.64;100.00;99493.56;5013553;28;795;-66
2023/10/21 04:13:46;;;;;;;;;;;;;;;13.52;100.00;99494.22;5013303;28;1882;-65
2023/10/21 04:16:13;;;;;;;;;;;;;;;13.38;100.00;99496.09;5013376;28;811;-66
2023/10/21 04:18:40;;;;;;;;;;;;;;;13.30;100.00;99491.13;5013085;28;827;-66
2023/10/21 04:21:06;;;;;;;;;;;;;;;13.24;100.00;99499.16;5013545;28;954;-65
2023/10/21 04:23:32;;;;;;;;;;;;;;;13.27;100.00;99495.50;5013469;28;1366;-66
2023/10/21 04:25:58;;;;;;;;;;;;;;;13.24;100.00;99494.38;5013292;28;1021;-66
2023/10/21 04:28:25;;;;;;;;;;;;;;;13.18;100.00;99501.63;5013181;28;858;-66
2023/10/21 04:30:52;;;;;;;;;;;;;;;13.15;100.00;99504.50;5013123;28;802;-66
2023/10/21 04:33:19;;;;;;;;;;;;;;;13.21;100.00;99508.34;4995626;28;1914;-66
2023/10/21 04:35:45;;;;;;;;;;;;;;;13.26;100.00;99497.50;5012941;28;1284;-66
2023/10/21 04:38:11;;;;;;;;;;;;;;;13.20;100.00;99504.75;5012938;28;859;-64
2023/10/21 04:40:38;;;;;;;;;;;;;;;13.14;100.00;99506.47;5012967;28;830;-66
2023/10/21 04:43:05;;;;;;;;;;;;;;;13.03;100.00;99511.44;5013103;28;835;-67
2023/10/21 04:45:31;;;;;;;;;;;;;;;13.13;100.00;99507.69;5012723;28;842;-66
2023/10/21 04:47:58;;;;;;;;;;;;;;;13.12;100.00;99517.25;5012877;28;800;-66
2023/10/21 04:50:25;;;;;;;;;;;;;;;12.99;100.00;99514.28;5012680;28;890;-66
2023/10/21 04:52:52;;;;;;;;;;;;;;;12.98;100.00;99515.50;5012657;28;1878;-66
2023/10/21 04:55:20;;;;;;;;;;;;;;;12.98;100.00;99515.50;5012632;28;799;-66
2023/10/21 04:57:47;;;;;;;;;;;;;;;12.97;100.00;99518.69;5012594;28;886;-66
2023/10/21 05:00:14;;;;;;;;;;;;;;;12.93;100.00;99523.53;5012589;28;866;-66
2023/10/21 05:02:41;;;;;;;;;;;;;;;12.92;100.00;99527.53;5012391;28;945;-67
2023/10/21 05:05:08;;;;;;;;;;;;;;;12.96;100.00;99531.03;5012473;28;831;-67
2023/10/21 05:07:34;;;;;;;;;;;;;;;13.00;100.00;99537.28;5012419;28;931;-66
2023/10/21 05:10:01;;;;;;;;;;;;;;;13.08;100.00;99547.03;5012460;28;846;-67
2023/10/21 05:12:28;;;;;;;;;;;;;;;13.12;100.00;99544.97;5012214;28;1882;-66
2023/10/21 05:14:54;;;;;;;;;;;;;;;13.23;100.00;99548.31;5012385;28;894;-67
2023/10/21 05:17:21;;;;;;;;;;;;;;;13.37;100.00;99543.72;5012291;28;846;-66
2023/10/21 05:19:47;;;;;;;;;;;;;;;13.47;100.00;99554.59;5012274;28;1032;-66
2023/10/21 05:22:15;;;;;;;;;;;;;;;13.55;100.00;99549.69;5012220;28;822;-66
2023/10/21 05:24:42;;;;;;;;;;;;;;;13.65;100.00;99557.00;5011953;28;1411;-67
2023/10/21 05:27:09;;;;;;;;;;;;;;;13.78;100.00;99559.88;5012192;28;835;-67
2023/10/21 05:29:36;;;;;;;;;;;;;;;13.96;100.00;99559.50;5012146;28;902;-66
2023/10/21 05:32:02;;;;;;;;;;;;;;;14.18;100.00;99570.13;5011369;28;1977;-67
2023/10/21 05:34:29;;;;;;;;;;;;;;;14.35;100.00;99566.16;5012151;28;865;-67
2023/10/21 05:36:56;;;;;;;;;;;;;;;14.54;100.00;99566.50;5012139;28;796;-67
2023/10/21 05:39:23;;;;;;;;;;;;;;;14.75;100.00;99571.56;5012009;28;1020;-67
2023/10/21 05:41:51;;;;;;;;;;;;;;;14.90;100.00;99572.75;5012301;28;925;-67
2023/10/21 05:44:17;;;;;;;;;;;;;;;14.99;100.00;99569.31;5011981;28;906;-68
2023/10/21 05:46:44;;;;;;;;;;;;;;;15.14;100.00;99566.94;5012091;28;849;-68
2023/10/21 05:49:11;;;;;;;;;;;;;;;15.42;100.00;99562.56;5011936;28;931;-66
2023/10/21 05:51:37;;;;;;;;;;;;;;;15.78;100.00;99571.94;5011830;28;1949;-66
2023/10/21 05:54:04;;;;;;;;;;;;;;;15.99;100.00;99573.28;5011981;28;866;-67
2023/10/21 05:56:31;;;;;;;;;;;;;;;16.37;100.00;99578.88;5011875;28;866;-68
2023/10/21 05:58:57;;;;;;;;;;;;;;;16.73;100.00;99586.06;5011936;28;815;-67
2023/10/21 06:01:24;;;;;;;;;;;;;;;16.70;100.00;99586.94;5011719;28;857;-67
2023/10/21 06:03:51;;;;;;;;;;;;;;;16.62;100.00;99588.41;5011852;28;823;-68
2023/10/21 06:06:17;;;;;;;;;;;;;;;16.66;100.00;99594.66;5012095;28;802;-67
2023/10/21 06:08:44;;;;;;;;;;;;;;;16.72;100.00;99590.06;5011791;28;890;-68
2023/10/21 06:11:12;;;;;;;;;;;;;;;16.84;100.00;99592.09;4994170;28;1263;-69
2023/10/21 06:13:38;;;;;;;;;;;;;;;17.05;100.00;99598.97;5011682;28;1886;-68
2023/10/21 06:16:05;;;;;;;;;;;;;;;17.35;100.00;99594.69;5011985;28;834;-69
2023/10/21 06:18:32;;;;;;;;;;;;;;;17.68;100.00;99590.72;5011691;28;877;-67
2023/10/21 06:20:59;;;;;;;;;;;;;;;18.14;100.00;99602.19;5012044;28;960;-69
2023/10/21 06:23:24;;;;;;;;;;;;;;;18.71;100.00;99602.69;5011395;28;1225;-68
2023/10/21 06:25:51;;;;;;;;;;;;;;;19.44;100.00;99615.22;5011655;28;898;-68
2023/10/21 06:28:18;;;;;;;;;;;;;;;19.84;100.00;99614.22;4993907;28;1145;-69
2023/10/21 06:30:45;;;;;;;;;;;;;;;19.73;100.00;99619.56;5011535;28;897;-68
2023/10/21 06:33:11;;;;;;;;;;;;;;;19.41;100.00;99624.53;5011463;28;1906;-68
2023/10/21 06:35:38;;;;;;;;;;;;;;;19.02;100.00;99620.66;5011594;28;850;-68
2023/10/21 06:38:07;;;;;;;;;;;;;;;18.94;100.00;99620.94;5011434;28;843;-69
2023/10/21 06:40:34;;;;;;;;;;;;;;;18.88;100.00;99619.22;5011529;28;866;-71
2023/10/21 06:43:01;;;;;;;;;;;;;;;19.02;100.00;99612.25;5013587;28;879;-69
2023/10/21 06:45:27;;;;;;;;;;;;;;;19.11;100.00;99621.41;5015459;28;815;-69
2023/10/21 06:47:54;;;;;;;;;;;;;;;18.95;100.00;99611.31;5014961;28;965;-69
2023/10/21 06:50:24;;;;;;;;;;;;;;;18.60;100.00;99616.31;4997389;28;1227;-69
2023/10/21 06:52:52;;;;;;;;;;;;;;;18.16;100.00;99616.50;4997219;28;1973;-68
2023/10/21 06:55:19;;;;;;;;;;;;;;;18.02;100.00;99608.66;5014931;28;945;-69
2023/10/21 06:57:46;;;;;;;;;;;;;;;17.95;100.00;99616.06;5014762;28;870;-69
2023/10/21 07:00:13;;;;;;;;;;;;;;;18.00;100.00;99613.91;5014691;28;867;-70
2023/10/21 07:02:40;;;;;;;;;;;;;;;18.39;100.00;99617.97;5014836;28;803;-70
2023/10/21 07:05:09;;;;;;;;;;;;;;;19.10;100.00;99616.31;5014577;28;913;-69
2023/10/21 07:07:40;;;;;;;;;;;;;;;19.70;100.00;99621.28;5014677;28;878;-69
2023/10/21 07:10:07;;;;;;;;;;;;;;;20.06;100.00;99605.59;5014533;28;1230;-70
2023/10/21 07:12:34;;;;;;;;;;;;;;;20.28;100.00;99608.16;5014526;28;1949;-71
2023/10/21 07:15:00;;;;;;;;;;;;;;;20.33;100.00;99603.94;5014631;28;803;-70
2023/10/21 07:17:28;;;;;;;;;;;;;;;20.49;100.00;99611.97;5014447;28;1009;-72
2023/10/21 07:19:55;;;;;;;;;;;;;;;20.78;100.00;99614.19;5014771;28;1162;-75
2023/10/21 07:22:22;;;;;;;;;;;;;;;21.18;100.00;99609.38;5014864;28;1272;-72
2023/10/21 07:24:53;;;;;;;;;;;;;;;21.41;100.00;99607.78;5014033;28;1258;-72
2023/10/21 07:27:19;;;;;;;;;;;;;;;21.94;100.00;99611.81;5014462;28;839;-75
2023/10/21 07:29:46;;;;;;;;;;;;;;;22.24;100.00;99612.59;5014384;28;830;-75
2023/10/21 07:32:13;;;;;;;;;;;;;;;22.44;100.00;99620.31;5014305;28;1977;-75
2023/10/21 07:34:49;;;;;;;;;;;;;;;22.21;100.00;99594.63;4996750;28;903;-74
2023/10/21 07:37:26;;;;;;;;;;;;;;;22.31;100.00;99620.63;5014186;28;847;-73
2023/10/21 07:39:52;;;;;;;;;;;;;;;22.38;100.00;99630.69;5014678;28;874;-75
2023/10/21 07:42:21;;;;;;;;;;;;;;;22.40;100.00;99616.91;5014354;28;1185;-75
2023/10/21 07:44:48;;;;;;;;;;;;;;;22.25;100.00;99618.97;4996571;28;1226;-72
2023/10/21 07:47:14;;;;;;;;;;;;;;;22.03;100.00;99614.53;4996802;28;843;-72
2023/10/21 07:49:41;;;;;;;;;;;;;;;22.27;100.00;99610.81;5014258;28;877;-72
2023/10/21 07:52:06;;;;;;;;;;;;;;;22.58;100.00;99613.88;5013889;28;1886;-71
2023/10/21 07:54:34;;;;;;;;;;;;;;;22.90;100.00;99611.22;5013163;28;806;-70
2023/10/21 07:57:00;;;;;;;;;;;;;;;23.13;100.00;99614.34;5013851;28;1250;-72
2023/10/21 07:59:27;;;;;;;;;;;;;;;23.29;100.00;99610.19;5013620;28;799;-73
2023/10/21 08:01:54;;;;;;;;;;;;;;;23.37;100.00;99608.47;5013652;28;815;-71
2023/10/21 08:04:20;;;;;;;;;;;;;;;23.41;100.00;99612.63;5013559;28;874;-75
2023/10/21 08:06:47;;;;;;;;;;;;;;;23.44;100.00;99617.25;5013716;28;855;-75
2023/10/21 08:09:15;;;;;;;;;;;;;;;23.73;100.00;99620.38;5013433;28;870;-70
2023/10/21 08:11:45;;;;;;;;;;;;;;;23.95;100.00;99619.84;4995792;28;1890;-75
2023/10/21 08:14:12;;;;;;;;;;;;;;;23.91;100.00;99619.28;5013648;28;850;-71
2023/10/21 08:16:38;;;;;;;;;;;;;;;23.97;100.00;99606.78;5013459;28;822;-70
2023/10/21 08:19:07;;;;;;;;;;;;;;;24.04;100.00;99617.59;5013824;28;842;-74
2023/10/21 08:21:37;;;;;;;;;;;;;;;24.05;100.00;99615.56;5013705;28;904;-69
2023/10/21 08:24:04;;;;;;;;;;;;;;;23.83;100.00;99619.75;5012999;28;1127;-74
2023/10/21 08:26:31;;;;;;;;;;;;;;;23.93;100.00;99622.38;5013118;28;834;-73
2023/10/21 08:28:57;;;;;;;;;;;;;;;23.90;100.00;99615.69;5013131;28;862;-69
2023/10/21 08:31:24;;;;;;;;;;;;;;;24.03;100.00;99612.47;5012987;28;862;-72
2023/10/21 08:33:52;;;;;;;;;;;;;;;24.07;100.00;99617.88;5013143;28;1977;-69
2023/10/21 08:36:20;;;;;;;;;;;;;;;23.73;100.00;99623.97;4995477;28;1633;-67
2023/10/21 08:38:53;;;;;;;;;;;;;;;23.46;100.00;99613.19;5013104;28;824;-70
2023/10/21 08:41:20;;;;;;;;;;;;;;;23.48;100.00;99613.47;5012912;28;811;-70
2023/10/21 08:43:48;;;;;;;;;;;;;;;23.58;100.00;99614.84;5012927;28;902;-73
2023/10/21 08:46:17;;;;;;;;;;;;;;;23.72;100.00;99616.78;5013086;28;842;-70
2023/10/21 08:48:47;;;;;;;;;;;;;;;24.08;100.00;99605.31;5012825;28;835;-69
2023/10/21 09:22:30;;;;;;;;;;;;;;;25.51;100.00;99600.69;5431546;23;1521;-68
2023/10/21 09:25:15;;;;;;;;;;;;;;;25.81;96.04;99595.34;4992752;28;1288;-72
2023/10/21 09:27:46;;;;;;;;;;;;;;;25.76;94.31;99594.03;4992645;28;831;-66
2023/10/21 09:30:36;;;;;;;;;;;;;;;25.44;95.02;99597.09;4993475;28;1151;-71
2023/10/21 09:33:10;;;;;;;;;;;;;;;25.13;96.09;99585.91;4956014;28;1938;-71
2023/10/21 09:35:37;;;;;;;;;;;;;;;24.88;97.74;99590.44;4992536;28;851;-71
2023/10/21 09:38:16;;;;;;;;;;;;;;;24.80;98.21;99590.16;4992595;28;974;-70
2023/10/21 09:40:43;;;;;;;;;;;;;;;24.84;96.96;99594.28;4992720;28;858;-70
2023/10/21 09:43:13;;;;;;;;;;;;;;;25.14;96.28;99590.28;4992929;28;827;-69
2023/10/21 09:45:42;;;;;;;;;;;;;;;25.70;93.90;99572.69;4992417;28;889;-68
2023/10/21 09:48:10;;;;;;;;;;;;;;;26.00;83.69;99579.41;4992698;28;834;-69
2023/10/21 09:50:37;;;;;;;;;;;;;;;26.13;81.57;99578.88;4992314;28;892;-69
2023/10/21 09:53:12;;;;;;;;;;;;;;;26.16;79.51;99572.19;4992238;28;1963;-66
2023/10/21 09:55:41;;;;;;;;;;;;;;;26.42;77.40;99571.88;4992330;28;831;-73
2023/10/21 09:58:08;;;;;;;;;;;;;;;26.60;77.36;99555.63;4992413;28;819;-68
2023/10/21 10:00:35;;;;;;;;;;;;;;;26.80;78.06;99551.69;4992510;28;873;-68
2023/10/21 10:03:05;;;;;;;;;;;;;;;27.25;75.37;99557.19;4974739;28;1284;-69
2023/10/21 10:05:32;;;;;;;;;;;;;;;27.36;74.40;99557.13;4992520;28;815;-71
2023/10/21 10:07:59;;;;;;;;;;;;;;;27.51;73.47;99547.47;4974767;28;1361;-66
2023/10/21 10:10:27;;;;;;;;;;;;;;;27.64;70.81;99556.91;4992239;28;839;-67
2023/10/21 10:13:02;;;;;;;;;;;;;;;27.40;70.31;99551.16;4992149;28;1886;-68
2023/10/21 10:15:33;;;;;;;;;;;;;;;27.60;63.85;99547.16;4992373;28;898;-69
2023/10/21 10:18:01;;;;;;;;;;;;;;;27.54;61.45;99543.59;4994520;28;826;-65
2023/10/21 10:20:28;;;;;;;;;;;;;;;27.54;59.70;99537.91;4995741;28;1054;-71
2023/10/21 10:22:58;;;;;;;;;;;;;;;27.52;58.68;99544.09;4995816;28;1219;-68
2023/10/21 10:25:34;;;;;;;;;;;;;;;27.54;57.75;99535.81;4995846;28;834;-67
2023/10/21 10:28:07;;;;;;;;;;;;;;;27.71;56.36;99532.88;4995899;28;846;-70
2023/10/21 10:30:34;;;;;;;;;;;;;;;27.93;53.65;99531.94;4995822;28;815;-73
2023/10/21 10:33:08;;;;;;;;;;;;;;;27.89;52.42;99528.63;4995810;28;1910;-75
2023/10/21 10:35:40;;;;;;;;;;;;;;;28.09;51.58;99530.22;4995747;28;811;-74
2023/10/21 10:38:17;;;;;;;;;;;;;;;28.20;51.30;99527.28;4995890;28;871;-69
2023/10/21 10:40:44;;;;;;;;;;;;;;;28.30;50.24;99519.19;4995498;28;870;-67
2023/10/21 10:43:11;;;;;;;;;;;;;;;28.49;50.61;99528.53;4995680;28;827;-67
2023/10/21 10:45:38;;;;;;;;;;;;;;;28.56;49.50;99523.56;4995354;28;873;-65
2023/10/21 10:48:07;;;;;;;;;;;;;;;28.67;49.61;99517.72;4995575;28;799;-70
2023/10/21 10:50:36;;;;;;;;;;;;;;;28.74;49.00;99524.88;4995247;28;934;-75
2023/10/21 10:53:27;;;;;;;;;;;;;;;28.72;48.53;99514.06;4995837;28;1950;-68
2023/10/21 10:55:54;;;;;;;;;;;;;;;29.00;48.59;99508.00;4995569;28;827;-75
2023/10/21 10:58:21;;;;;;;;;;;;;;;29.02;47.09;99508.25;4977773;28;1183;-70
2023/10/21 11:00:48;;;;;;;;;;;;;;;29.14;47.05;99516.63;4995164;28;961;-69
2023/10/21 11:03:24;;;;;;;;;;;;;;;29.26;45.11;99518.00;4995203;28;795;-70
2023/10/21 11:05:51;;;;;;;;;;;;;;;29.10;42.83;99520.56;4995347;28;826;-73
2023/10/21 11:08:18;;;;;;;;;;;;;;;29.23;42.84;99510.53;4995198;28;930;-71
2023/10/21 11:10:48;;;;;;;;;;;;;;;29.23;42.94;99508.47;4995109;28;1021;-69
2023/10/21 11:13:14;;;;;;;;;;;;;;;29.45;42.47;99515.91;4994963;28;1952;-74
2023/10/21 11:15:44;;;;;;;;;;;;;;;29.64;42.44;99507.31;4995057;28;873;-69
2023/10/21 11:18:15;;;;;;;;;;;;;;;29.92;41.44;99504.00;4995025;28;870;-70
2023/10/21 11:20:52;;;;;;;;;;;;;;;29.91;41.14;99508.19;4994596;28;1135;-73
2023/10/21 11:23:19;;;;;;;;;;;;;;;29.95;40.37;99510.69;4994807;28;1898;-72
2023/10/21 11:26:09;;;;;;;;;;;;;;;30.28;39.29;99512.19;4994839;28;874;-73
2023/10/21 11:28:37;;;;;;;;;;;;;;;30.24;38.55;99510.97;4983945;28;1144;-72
2023/10/21 11:31:03;;;;;;;;;;;;;;;30.23;38.66;99509.41;4994917;28;885;-69
2023/10/21 11:33:29;;;;;;;;;;;;;;;30.30;38.87;99508.81;4994671;28;835;-71
2023/10/21 11:35:58;;;;;;;;;;;;;;;30.69;38.60;99504.38;4994644;28;807;-74
2023/10/21 11:38:28;;;;;;;;;;;;;;;30.64;37.50;99505.25;4975691;28;1317;-73
2023/10/21 11:40:55;;;;;;;;;;;;;;;30.68;37.70;99505.69;4977296;28;1239;-76
2023/10/21 11:43:28;;;;;;;;;;;;;;;30.76;37.60;99502.94;4977070;28;1949;-75
2023/10/21 11:45:56;;;;;;;;;;;;;;;31.05;37.25;99498.94;4994520;28;1114;-70
2023/10/21 11:48:24;;;;;;;;;;;;;;;31.34;36.05;99496.97;4994487;28;823;-71
2023/10/21 11:50:51;;;;;;;;;;;;;;;31.26;35.46;99503.91;4994565;28;826;-67
2023/10/21 11:53:19;;;;;;;;;;;;;;;31.71;34.81;99500.78;4994340;28;815;-72
2023/10/21 12:41:41;;;;;;;;;;;;;;;32.48;31.90;99475.59;4993374;28;685;-67
2023/10/21 12:44:14;;;;;;;;;;;;;;;32.35;32.14;99476.47;4993389;28;1906;-75
2023/10/21 12:46:42;;;;;;;;;;;;;;;32.28;32.37;99477.19;4993384;28;866;-67
2023/10/21 12:49:16;;;;;;;;;;;;;;;32.31;33.21;99472.47;4993264;28;959;-72
2023/10/21 12:51:42;;;;;;;;;;;;;;;32.53;33.06;99476.78;4993188;28;827;-69
2023/10/21 12:54:11;;;;;;;;;;;;;;;32.89;32.56;99482.47;4993051;28;895;-67
2023/10/21 12:56:38;;;;;;;;;;;;;;;33.02;31.68;99475.06;4993132;28;855;-72
2023/10/21 12:59:08;;;;;;;;;;;;;;;32.90;32.11;99480.34;4993187;28;858;-73
2023/10/21 13:01:38;;;;;;;;;;;;;;;33.06;31.75;99478.31;4993001;28;894;-71
2023/10/21 13:04:05;;;;;;;;;;;;;;;33.24;31.89;99468.63;4975688;28;1886;-70
2023/10/21 13:06:34;;;;;;;;;;;;;;;33.21;31.96;99477.63;4993183;28;864;-77
2023/10/21 13:09:00;;;;;;;;;;;;;;;33.28;31.95;99474.00;4993022;28;897;-72
2023/10/21 13:11:27;;;;;;;;;;;;;;;33.29;32.25;99470.56;4993042;28;842;-75
2023/10/21 13:13:54;;;;;;;;;;;;;;;33.34;32.23;99471.72;4993016;28;845;-72
2023/10/21 13:16:21;;;;;;;;;;;;;;;33.33;32.94;99473.06;4975417;28;1390;-72
2023/10/21 13:18:48;;;;;;;;;;;;;;;33.28;32.56;99468.28;4992976;28;874;-74
2023/10/21 13:21:17;;;;;;;;;;;;;;;32.84;33.08;99466.25;4992976;28;1051;-71
2023/10/21 13:23:44;;;;;;;;;;;;;;;32.85;33.24;99464.91;4992491;28;1973;-71
2023/10/21 13:26:11;;;;;;;;;;;;;;;32.86;33.12;99469.31;4975262;28;1299;-71
2023/10/21 13:28:39;;;;;;;;;;;;;;;32.71;33.44;99464.28;4975266;28;1287;-72
2023/10/21 13:31:06;;;;;;;;;;;;;;;32.39;33.51;99461.03;4974657;28;1296;-71
2023/10/21 13:33:33;;;;;;;;;;;;;;;32.51;33.51;99463.00;4992595;28;906;-71
2023/10/21 13:36:00;;;;;;;;;;;;;;;32.55;33.63;99463.44;4992835;28;811;-67
2023/10/21 13:38:26;;;;;;;;;;;;;;;32.55;34.13;99465.53;4992569;28;837;-66
2023/10/21 13:40:52;;;;;;;;;;;;;;;32.29;33.93;99467.28;4992404;28;885;-63
2023/10/21 13:43:19;;;;;;;;;;;;;;;32.11;34.51;99459.75;4992391;28;1898;-66
2023/10/21 13:45:45;;;;;;;;;;;;;;;32.08;34.67;99455.16;4992390;28;827;-66
2023/10/21 13:48:13;;;;;;;;;;;;;;;32.05;34.80;99451.34;4974784;28;2189;-67
2023/10/21 13:50:40;;;;;;;;;;;;;;;31.98;34.62;99457.75;4974849;28;1490;-70
2023/10/21 13:53:17;;;;;;;;;;;;;;;31.80;35.05;99453.81;4995017;28;837;-65
2023/10/21 13:55:46;;;;;;;;;;;;;;;31.80;35.28;99450.94;4996422;28;886;-67
2023/10/21 13:58:14;;;;;;;;;;;;;;;31.63;35.45;99451.38;4996525;28;792;-66
2023/10/21 14:00:41;;;;;;;;;;;;;;;31.49;35.63;99447.06;4996624;28;867;-68
2023/10/21 14:03:09;;;;;;;;;;;;;;;31.27;35.92;99451.97;4996074;28;1956;-66
2023/10/21 14:05:37;;;;;;;;;;;;;;;31.04;36.18;99448.13;4996391;28;850;-66
2023/10/21 14:08:08;;;;;;;;;;;;;;;30.78;36.63;99446.09;4996132;28;972;-67
2023/10/21 14:10:36;;;;;;;;;;;;;;;30.57;36.97;99443.94;4996431;28;874;-66
2023/10/21 14:13:04;;;;;;;;;;;;;;;30.54;37.03;99453.63;4996394;28;862;-65
2023/10/21 14:15:31;;;;;;;;;;;;;;;30.60;37.07;99450.63;4996067;28;855;-66
2023/10/21 14:17:57;;;;;;;;;;;;;;;30.60;37.22;99457.13;4995981;28;815;-66